createdAt,value
2019-02-07T00:00:57.464Z,28.60
2019-02-07T00:01:57.455Z,28.60
2019-02-07T00:02:57.448Z,29.20
2019-02-07T00:03:57.488Z,28.50
2019-02-07T00:04:57.427Z,28.90
2019-02-07T00:05:57.433Z,27.00
2019-02-07T00:06:57.404Z,28.30
2019-02-07T00:07:57.395Z,27.90
2019-02-07T00:08:57.384Z,29.40
2019-02-07T00:09:57.378Z,29.50
2019-02-07T00:10:57.381Z,28.40
2019-02-07T00:11:57.448Z,29.20
2019-02-07T00:12:57.454Z,28.80
2019-02-07T00:13:57.334Z,29.40
2019-02-07T00:14:57.324Z,29.00
2019-02-07T00:15:57.311Z,28.80
2019-02-07T00:16:57.301Z,30.10
2019-02-07T00:17:57.307Z,28.70
2019-02-07T00:18:57.288Z,28.60
2019-02-07T00:19:57.273Z,29.40
2019-02-07T00:20:57.267Z,27.90
2019-02-07T00:21:57.253Z,29.40
2019-02-07T00:22:57.248Z,28.10
2019-02-07T00:23:57.258Z,28.10
2019-02-07T00:24:57.223Z,28.60
2019-02-07T00:25:57.212Z,28.60
2019-02-07T00:26:57.205Z,28.70
2019-02-07T00:27:57.197Z,28.20
2019-02-07T00:28:57.186Z,28.10
2019-02-07T00:29:57.190Z,28.10
2019-02-07T00:30:57.160Z,28.20
2019-02-07T00:31:57.157Z,29.00
2019-02-07T00:32:57.145Z,28.10
2019-02-07T00:33:57.162Z,27.90
2019-02-07T00:34:57.119Z,27.70
2019-02-07T00:35:57.122Z,27.20
2019-02-07T00:36:57.103Z,27.10
2019-02-07T00:37:57.087Z,28.60
2019-02-07T00:38:57.081Z,28.60
2019-02-07T00:39:57.068Z,28.10
2019-02-07T00:40:57.058Z,27.90
2019-02-07T00:41:57.067Z,27.70
2019-02-07T00:42:57.036Z,28.40
2019-02-07T00:43:57.029Z,27.90
2019-02-07T00:44:57.016Z,28.30
2019-02-07T00:45:57.005Z,28.40
2019-02-07T00:46:56.998Z,27.80
2019-02-07T00:47:57.006Z,27.70
2019-02-07T00:48:56.997Z,28.80
2019-02-07T00:49:56.965Z,27.30
2019-02-07T00:50:56.955Z,26.20
2019-02-07T00:51:56.948Z,28.00
2019-02-07T00:52:56.943Z,29.30
2019-02-07T00:53:56.940Z,28.50
2019-02-07T00:54:56.914Z,28.70
2019-02-07T00:55:56.904Z,28.20
2019-02-07T00:56:56.898Z,27.90
2019-02-07T00:57:56.888Z,28.60
2019-02-07T00:58:56.880Z,27.10
2019-02-07T00:59:56.874Z,28.70
2019-02-07T01:00:56.855Z,28.70
2019-02-07T01:01:56.845Z,27.50
2019-02-07T01:02:56.833Z,28.90
2019-02-07T01:03:56.819Z,28.00
2019-02-07T01:04:56.806Z,27.50
2019-02-07T01:05:56.832Z,28.60
2019-02-07T01:06:56.790Z,29.00
2019-02-07T01:07:56.777Z,27.90
2019-02-07T01:08:56.768Z,29.90
2019-02-07T01:09:56.761Z,28.10
2019-02-07T01:10:56.768Z,29.60
2019-02-07T01:11:56.748Z,29.20
2019-02-07T01:12:56.734Z,28.70
2019-02-07T01:13:56.717Z,29.10
2019-02-07T01:15:02.253Z,27.70
2019-02-07T01:15:57.698Z,29.40
2019-02-07T01:16:56.686Z,28.60
2019-02-07T01:17:56.688Z,29.40
2019-02-07T01:18:56.668Z,28.30
2019-02-07T01:19:56.672Z,27.50
2019-02-07T01:20:56.644Z,28.20
2019-02-07T01:21:56.631Z,29.90
2019-02-07T01:22:56.626Z,29.30
2019-02-07T01:23:56.657Z,30.30
2019-02-07T01:24:56.602Z,29.30
2019-02-07T01:25:56.602Z,29.30
2019-02-07T01:26:56.583Z,30.10
2019-02-07T01:27:56.572Z,28.70
2019-02-07T01:28:56.564Z,28.20
2019-02-07T01:29:56.564Z,29.40
2019-02-07T01:30:56.552Z,30.80
2019-02-07T01:31:56.531Z,30.10
2019-02-07T01:32:56.524Z,29.50
2019-02-07T01:33:56.512Z,29.40
2019-02-07T01:34:56.499Z,30.30
2019-02-07T01:35:56.513Z,29.50
2019-02-07T01:36:56.483Z,30.10
2019-02-07T01:37:56.470Z,30.20
2019-02-07T01:38:56.464Z,31.10
2019-02-07T01:39:56.451Z,30.20
2019-02-07T01:40:56.439Z,30.20
2019-02-07T01:41:56.445Z,29.90
2019-02-07T01:42:56.429Z,30.60
2019-02-07T01:43:56.414Z,29.90
2019-02-07T01:44:56.396Z,31.10
2019-02-07T01:45:56.387Z,30.90
2019-02-07T01:46:56.382Z,33.30
2019-02-07T01:47:56.393Z,30.90
2019-02-07T01:48:56.361Z,32.10
2019-02-07T01:49:56.345Z,32.10
2019-02-07T01:50:56.342Z,30.70
2019-02-07T01:51:56.332Z,30.40
2019-02-07T01:52:56.316Z,31.00
2019-02-07T01:53:56.335Z,31.40
2019-02-07T01:54:56.294Z,32.40
2019-02-07T01:55:56.282Z,32.20
2019-02-07T01:56:56.276Z,31.90
2019-02-07T01:57:56.274Z,31.40
2019-02-07T01:58:56.266Z,31.00
2019-02-07T01:59:56.285Z,32.40
2019-02-07T02:00:56.234Z,33.00
2019-02-07T02:01:56.219Z,32.30
2019-02-07T02:02:56.217Z,31.00
2019-02-07T02:03:56.205Z,33.00
2019-02-07T02:04:56.193Z,31.60
2019-02-07T02:05:56.202Z,30.90
2019-02-07T02:06:56.175Z,31.60
2019-02-07T02:07:56.164Z,31.90
2019-02-07T02:08:56.162Z,31.00
2019-02-07T02:09:56.145Z,32.80
2019-02-07T02:10:56.135Z,31.90
2019-02-07T02:11:56.173Z,32.40
2019-02-07T02:12:56.116Z,30.50
2019-02-07T02:13:56.099Z,32.20
2019-02-07T02:14:56.098Z,32.10
2019-02-07T02:15:56.077Z,31.80
2019-02-07T02:16:56.073Z,31.50
2019-02-07T02:17:56.100Z,31.90
2019-02-07T02:18:56.051Z,31.20
2019-02-07T02:19:56.037Z,31.60
2019-02-07T02:20:56.028Z,31.70
2019-02-07T02:21:56.028Z,31.70
2019-02-07T02:22:56.003Z,30.70
2019-02-07T02:23:56.022Z,30.80
2019-02-07T02:24:55.987Z,32.60
2019-02-07T02:25:55.970Z,30.80
2019-02-07T02:26:55.964Z,32.00
2019-02-07T02:27:55.960Z,32.10
2019-02-07T02:28:55.945Z,30.70
2019-02-07T02:29:55.958Z,31.80
2019-02-07T02:30:55.920Z,29.80
2019-02-07T02:31:55.977Z,30.90
2019-02-07T02:32:55.907Z,30.80
2019-02-07T02:33:55.895Z,32.90
2019-02-07T02:34:55.886Z,32.30
2019-02-07T02:35:55.883Z,31.90
2019-02-07T02:36:55.864Z,32.10
2019-02-07T02:37:55.852Z,30.90
2019-02-07T02:38:55.849Z,32.20
2019-02-07T02:39:55.835Z,31.70
2019-02-07T02:40:55.822Z,32.10
2019-02-07T02:41:55.838Z,31.40
2019-02-07T02:42:55.802Z,32.50
2019-02-07T02:43:55.793Z,31.30
2019-02-07T02:44:55.776Z,31.90
2019-02-07T02:45:55.776Z,30.60
2019-02-07T02:46:55.757Z,31.20
2019-02-07T02:47:55.771Z,30.30
2019-02-07T02:48:55.736Z,31.10
2019-02-07T02:49:55.727Z,29.90
2019-02-07T02:50:55.714Z,30.00
2019-02-07T02:51:55.730Z,31.00
2019-02-07T02:52:55.700Z,31.20
2019-02-07T02:53:55.704Z,31.30
2019-02-07T02:54:55.701Z,31.50
2019-02-07T02:55:55.685Z,30.90
2019-02-07T02:56:55.656Z,30.20
2019-02-07T02:57:55.647Z,29.40
2019-02-07T02:58:55.645Z,29.80
2019-02-07T02:59:55.652Z,30.40
2019-02-07T03:00:55.614Z,29.60
2019-02-07T03:01:55.607Z,30.50
2019-02-07T03:02:55.595Z,30.60
2019-02-07T03:03:55.585Z,28.50
2019-02-07T03:04:55.576Z,31.10
2019-02-07T03:05:55.582Z,29.10
2019-02-07T03:06:55.553Z,29.60
2019-02-07T03:07:55.553Z,29.40
2019-02-07T03:08:55.534Z,31.10
2019-02-07T03:09:55.522Z,33.50
2019-02-07T03:10:55.521Z,29.90
2019-02-07T03:11:55.518Z,30.70
2019-02-07T03:12:55.500Z,31.40
2019-02-07T03:13:55.492Z,30.30
2019-02-07T03:14:55.478Z,29.20
2019-02-07T03:15:55.491Z,29.50
2019-02-07T03:16:55.450Z,28.80
2019-02-07T03:17:55.457Z,28.60
2019-02-07T03:18:55.435Z,28.50
2019-02-07T03:19:55.442Z,28.00
2019-02-07T03:20:55.423Z,29.80
2019-02-07T03:21:55.448Z,29.50
2019-02-07T03:22:55.386Z,30.60
2019-02-07T03:23:55.399Z,29.00
2019-02-07T03:24:55.380Z,27.70
2019-02-07T03:25:55.357Z,28.10
2019-02-07T03:26:55.349Z,27.50
2019-02-07T03:27:55.341Z,28.60
2019-02-07T03:28:55.329Z,28.20
2019-02-07T03:29:55.333Z,29.20
2019-02-07T03:30:55.305Z,29.60
2019-02-07T03:31:55.312Z,28.90
2019-02-07T03:32:55.299Z,28.30
2019-02-07T03:33:55.276Z,30.20
2019-02-07T03:34:55.273Z,29.00
2019-02-07T03:35:55.277Z,28.40
2019-02-07T03:36:55.244Z,28.60
2019-02-07T03:37:55.231Z,28.00
2019-02-07T03:38:55.229Z,28.70
2019-02-07T03:39:55.225Z,28.40
2019-02-07T03:40:55.204Z,27.60
2019-02-07T03:41:55.228Z,28.30
2019-02-07T03:42:55.191Z,27.60
2019-02-07T03:43:55.176Z,29.50
2019-02-07T03:44:55.167Z,27.50
2019-02-07T03:46:02.817Z,27.30
2019-02-07T03:46:56.154Z,29.20
2019-02-07T03:47:55.130Z,28.00
2019-02-07T03:48:55.121Z,28.40
2019-02-07T03:49:55.110Z,27.60
2019-02-07T03:50:55.096Z,28.30
2019-02-07T03:51:55.088Z,27.50
2019-02-07T03:52:55.106Z,27.70
2019-02-07T03:53:55.073Z,26.80
2019-02-07T03:54:55.059Z,28.50
2019-02-07T03:55:55.062Z,27.10
2019-02-07T03:56:55.041Z,28.60
2019-02-07T03:57:55.035Z,27.40
2019-02-07T03:58:55.030Z,29.00
2019-02-07T03:59:55.008Z,27.50
2019-02-07T04:00:54.996Z,29.40
2019-02-07T04:02:02.029Z,27.40
2019-02-07T04:02:54.976Z,28.10
2019-02-07T04:03:54.968Z,28.80
2019-02-07T04:04:54.969Z,28.80
2019-02-07T04:05:54.945Z,27.90
2019-02-07T04:06:54.934Z,27.60
2019-02-07T04:07:54.927Z,28.50
2019-02-07T04:08:54.919Z,27.70
2019-02-07T04:09:54.912Z,28.20
2019-02-07T04:10:54.908Z,28.10
2019-02-07T04:11:54.883Z,28.20
2019-02-07T04:12:54.875Z,28.30
2019-02-07T04:13:54.864Z,28.10
2019-02-07T04:14:54.848Z,27.70
2019-02-07T04:15:54.839Z,28.30
2019-02-07T04:16:54.848Z,28.70
2019-02-07T04:17:54.825Z,29.60
2019-02-07T04:18:54.810Z,30.10
2019-02-07T04:19:54.800Z,29.30
2019-02-07T04:20:54.790Z,29.70
2019-02-07T04:21:54.781Z,30.70
2019-02-07T04:22:54.784Z,30.50
2019-02-07T04:23:54.759Z,30.50
2019-02-07T04:24:54.749Z,29.90
2019-02-07T04:25:54.739Z,28.60
2019-02-07T04:26:54.736Z,29.20
2019-02-07T04:27:54.723Z,29.80
2019-02-07T04:28:54.729Z,28.90
2019-02-07T04:29:54.698Z,29.40
2019-02-07T04:30:54.688Z,28.60
2019-02-07T04:31:54.679Z,27.60
2019-02-07T04:32:54.666Z,27.40
2019-02-07T04:33:54.656Z,29.20
2019-02-07T04:34:54.663Z,27.80
2019-02-07T04:35:54.644Z,27.70
2019-02-07T04:36:54.627Z,28.50
2019-02-07T04:37:54.615Z,27.80
2019-02-07T04:38:54.620Z,28.50
2019-02-07T04:39:54.595Z,28.30
2019-02-07T04:40:54.620Z,28.20
2019-02-07T04:41:54.578Z,28.00
2019-02-07T04:42:54.570Z,27.80
2019-02-07T04:43:54.557Z,28.20
2019-02-07T04:44:54.544Z,28.20
2019-02-07T04:45:54.535Z,27.90
2019-02-07T04:46:54.544Z,28.50
2019-02-07T04:47:54.516Z,29.40
2019-02-07T04:48:54.502Z,28.30
2019-02-07T04:49:54.501Z,28.10
2019-02-07T04:50:54.484Z,28.00
2019-02-07T04:51:54.471Z,28.50
2019-02-07T04:52:54.484Z,28.70
2019-02-07T04:53:54.459Z,29.60
2019-02-07T04:54:54.443Z,29.60
2019-02-07T04:55:54.434Z,27.70
2019-02-07T04:56:54.424Z,28.60
2019-02-07T04:57:54.418Z,27.70
2019-02-07T04:58:54.421Z,29.00
2019-02-07T04:59:54.391Z,29.50
2019-02-07T05:00:54.383Z,29.20
2019-02-07T05:01:54.379Z,28.80
2019-02-07T05:02:54.360Z,28.40
2019-02-07T05:03:54.359Z,29.40
2019-02-07T05:04:54.353Z,29.10
2019-02-07T05:05:54.335Z,28.80
2019-02-07T05:06:54.319Z,28.10
2019-02-07T05:07:54.312Z,29.20
2019-02-07T05:08:54.299Z,29.70
2019-02-07T05:09:54.291Z,29.40
2019-02-07T05:10:54.299Z,29.10
2019-02-07T05:11:54.275Z,30.70
2019-02-07T05:12:54.255Z,30.60
2019-02-07T05:13:54.248Z,29.90
2019-02-07T05:14:54.240Z,29.40
2019-02-07T05:15:54.230Z,29.40
2019-02-07T05:16:54.235Z,30.80
2019-02-07T05:17:54.208Z,30.50
2019-02-07T05:18:54.198Z,31.10
2019-02-07T05:19:54.193Z,31.10
2019-02-07T05:20:54.185Z,28.90
2019-02-07T05:21:54.168Z,31.40
2019-02-07T05:22:54.171Z,31.20
2019-02-07T05:23:54.146Z,30.60
2019-02-07T05:24:54.136Z,30.30
2019-02-07T05:25:54.129Z,31.70
2019-02-07T05:26:54.127Z,30.10
2019-02-07T05:27:54.107Z,30.00
2019-02-07T05:28:54.120Z,29.20
2019-02-07T05:29:54.090Z,31.20
2019-02-07T05:30:54.079Z,31.00
2019-02-07T05:31:54.065Z,30.80
2019-02-07T05:32:54.055Z,30.50
2019-02-07T05:33:54.045Z,30.20
2019-02-07T05:34:54.224Z,31.50
2019-02-07T05:35:54.039Z,31.90
2019-02-07T05:36:54.017Z,30.20
2019-02-07T05:37:54.088Z,31.20
2019-02-07T05:38:53.991Z,30.50
2019-02-07T05:39:53.981Z,31.30
2019-02-07T05:40:53.988Z,30.30
2019-02-07T05:41:53.962Z,31.20
2019-02-07T05:42:53.953Z,31.10
2019-02-07T05:43:53.940Z,30.60
2019-02-07T05:44:53.930Z,32.00
2019-02-07T05:45:54.042Z,31.30
2019-02-07T05:46:53.926Z,31.30
2019-02-07T05:47:53.898Z,32.00
2019-02-07T05:48:53.891Z,29.90
2019-02-07T05:49:53.874Z,29.80
2019-02-07T05:50:53.871Z,29.90
2019-02-07T05:51:53.858Z,32.30
2019-02-07T05:52:53.868Z,31.10
2019-02-07T05:53:53.839Z,30.70
2019-02-07T05:54:53.829Z,32.10
2019-02-07T05:55:53.827Z,31.40
2019-02-07T05:56:53.811Z,32.50
2019-02-07T05:57:53.808Z,31.40
2019-02-07T05:58:53.805Z,31.10
2019-02-07T05:59:53.782Z,31.40
2019-02-07T06:00:53.768Z,33.50
2019-02-07T06:01:53.757Z,34.00
2019-02-07T06:02:53.742Z,32.10
2019-02-07T06:03:53.736Z,32.00
2019-02-07T06:04:53.739Z,32.50
2019-02-07T06:05:53.718Z,31.20
2019-02-07T06:06:53.707Z,32.20
2019-02-07T06:07:53.749Z,31.50
2019-02-07T06:08:53.684Z,31.20
2019-02-07T06:09:53.674Z,30.80
2019-02-07T06:10:53.688Z,30.90
2019-02-07T06:11:53.709Z,31.00
2019-02-07T06:12:53.649Z,33.20
2019-02-07T06:13:53.635Z,32.50
2019-02-07T06:14:53.625Z,32.20
2019-02-07T06:15:53.615Z,30.70
2019-02-07T06:17:02.338Z,31.50
2019-02-07T06:17:54.623Z,31.60
2019-02-07T06:18:53.586Z,32.20
2019-02-07T06:19:53.572Z,31.20
2019-02-07T06:20:53.562Z,31.30
2019-02-07T06:21:53.553Z,31.40
2019-02-07T06:22:53.557Z,32.10
2019-02-07T06:23:53.636Z,31.10
2019-02-07T06:24:53.521Z,30.80
2019-02-07T06:25:53.516Z,30.90
2019-02-07T06:26:53.503Z,30.50
2019-02-07T06:27:53.491Z,31.90
2019-02-07T06:28:53.501Z,30.90
2019-02-07T06:29:53.474Z,30.80
2019-02-07T06:30:53.463Z,29.90
2019-02-07T06:31:53.451Z,32.90
2019-02-07T06:32:53.445Z,31.40
2019-02-07T06:33:53.424Z,30.60
2019-02-07T06:34:53.433Z,30.90
2019-02-07T06:35:53.411Z,30.00
2019-02-07T06:36:53.398Z,29.50
2019-02-07T06:37:53.392Z,30.50
2019-02-07T06:38:53.379Z,30.60
2019-02-07T06:39:53.370Z,31.50
2019-02-07T06:40:53.374Z,30.90
2019-02-07T06:41:53.353Z,30.30
2019-02-07T06:42:53.335Z,29.60
2019-02-07T06:43:53.334Z,29.80
2019-02-07T06:44:53.318Z,31.50
2019-02-07T06:45:53.309Z,30.80
2019-02-07T06:46:53.312Z,31.50
2019-02-07T06:47:53.305Z,30.90
2019-02-07T06:48:53.273Z,31.10
2019-02-07T06:49:53.266Z,32.10
2019-02-07T06:50:53.256Z,31.30
2019-02-07T06:51:53.247Z,32.20
2019-02-07T06:52:53.269Z,31.90
2019-02-07T06:53:53.226Z,33.10
2019-02-07T06:54:53.217Z,31.80
2019-02-07T06:55:53.223Z,32.70
2019-02-07T06:56:53.226Z,31.30
2019-02-07T06:57:53.186Z,32.20
2019-02-07T06:58:55.186Z,30.80
2019-02-07T06:59:53.164Z,31.50
2019-02-07T07:00:53.165Z,29.90
2019-02-07T07:01:53.145Z,31.00
2019-02-07T07:02:53.138Z,29.60
2019-02-07T07:03:53.126Z,30.90
2019-02-07T07:04:53.148Z,30.60
2019-02-07T07:05:53.100Z,31.20
2019-02-07T07:06:53.094Z,30.20
2019-02-07T07:07:53.106Z,31.40
2019-02-07T07:08:53.077Z,31.20
2019-02-07T07:09:53.109Z,30.90
2019-02-07T07:10:53.073Z,31.50
2019-02-07T07:11:53.039Z,32.00
2019-02-07T07:12:53.032Z,31.30
2019-02-07T07:13:53.026Z,30.10
2019-02-07T07:14:53.013Z,30.50
2019-02-07T07:15:53.001Z,31.70
2019-02-07T07:16:53.007Z,30.80
2019-02-07T07:17:52.981Z,31.10
2019-02-07T07:18:52.971Z,32.20
2019-02-07T07:19:52.962Z,31.70
2019-02-07T07:20:52.953Z,30.60
2019-02-07T07:21:52.940Z,31.70
2019-02-07T07:22:52.946Z,32.10
2019-02-07T07:23:52.920Z,31.80
2019-02-07T07:24:52.908Z,31.40
2019-02-07T07:25:52.901Z,31.10
2019-02-07T07:26:52.890Z,30.90
2019-02-07T07:27:52.877Z,33.00
2019-02-07T07:28:52.881Z,31.10
2019-02-07T07:29:52.857Z,31.00
2019-02-07T07:30:52.856Z,31.10
2019-02-07T07:31:52.839Z,30.90
2019-02-07T07:32:52.826Z,32.60
2019-02-07T07:33:52.816Z,31.60
2019-02-07T07:34:52.826Z,33.00
2019-02-07T07:35:52.797Z,31.30
2019-02-07T07:36:52.788Z,31.50
2019-02-07T07:37:52.775Z,31.20
2019-02-07T07:38:52.765Z,32.20
2019-02-07T07:39:52.755Z,32.10
2019-02-07T07:40:52.766Z,32.60
2019-02-07T07:41:52.734Z,32.10
2019-02-07T07:42:52.727Z,32.10
2019-02-07T07:43:52.717Z,31.20
2019-02-07T07:44:52.739Z,32.10
2019-02-07T07:45:52.692Z,31.50
2019-02-07T07:46:52.698Z,31.60
2019-02-07T07:47:52.673Z,31.10
2019-02-07T07:48:52.663Z,31.90
2019-02-07T07:49:52.651Z,31.60
2019-02-07T07:50:52.641Z,32.10
2019-02-07T07:51:52.631Z,31.60
2019-02-07T07:52:52.634Z,32.90
2019-02-07T07:53:52.611Z,31.30
2019-02-07T07:54:52.599Z,31.50
2019-02-07T07:55:52.589Z,32.00
2019-02-07T07:56:52.579Z,31.80
2019-02-07T07:57:52.567Z,33.90
2019-02-07T07:58:52.573Z,33.40
2019-02-07T07:59:52.548Z,34.30
2019-02-07T08:00:52.535Z,34.90
2019-02-07T08:01:52.526Z,33.40
2019-02-07T08:02:52.516Z,32.60
2019-02-07T08:03:52.503Z,32.60
2019-02-07T08:04:52.527Z,32.40
2019-02-07T08:05:53.483Z,32.30
2019-02-07T08:06:52.475Z,32.10
2019-02-07T08:07:52.465Z,32.90
2019-02-07T08:08:52.456Z,31.10
2019-02-07T08:09:52.443Z,31.90
2019-02-07T08:10:52.448Z,32.40
2019-02-07T08:11:52.422Z,32.50
2019-02-07T08:12:52.418Z,33.00
2019-02-07T08:13:52.399Z,34.40
2019-02-07T08:14:52.388Z,30.80
2019-02-07T08:15:52.378Z,31.40
2019-02-07T08:16:52.385Z,31.50
2019-02-07T08:17:52.356Z,29.90
2019-02-07T08:18:52.350Z,30.20
2019-02-07T08:19:52.337Z,31.50
2019-02-07T08:20:52.325Z,30.10
2019-02-07T08:21:52.318Z,31.30
2019-02-07T08:22:52.318Z,30.30
2019-02-07T08:23:52.295Z,30.90
2019-02-07T08:24:52.289Z,30.50
2019-02-07T08:25:52.273Z,31.30
2019-02-07T08:26:52.264Z,31.30
2019-02-07T08:27:52.254Z,30.50
2019-02-07T08:28:52.258Z,30.70
2019-02-07T08:29:52.233Z,31.40
2019-02-07T08:30:52.222Z,31.80
2019-02-07T08:31:52.215Z,32.70
2019-02-07T08:32:52.203Z,34.20
2019-02-07T08:33:52.197Z,31.70
2019-02-07T08:34:52.200Z,30.80
2019-02-07T08:35:52.171Z,30.90
2019-02-07T08:36:52.161Z,29.60
2019-02-07T08:37:52.151Z,30.30
2019-02-07T08:38:52.143Z,30.70
2019-02-07T08:39:52.136Z,31.10
2019-02-07T08:40:52.152Z,30.70
2019-02-07T08:41:52.108Z,29.80
2019-02-07T08:42:52.100Z,30.90
2019-02-07T08:43:52.109Z,32.00
2019-02-07T08:44:54.983Z,32.30
2019-02-07T08:45:52.072Z,32.80
2019-02-07T08:46:52.094Z,32.70
2019-02-07T08:47:58.600Z,31.60
2019-02-07T08:48:53.061Z,30.60
2019-02-07T08:49:52.032Z,30.60
2019-02-07T08:50:52.019Z,32.40
2019-02-07T08:51:52.015Z,31.00
2019-02-07T08:52:52.018Z,30.70
2019-02-07T08:53:51.986Z,30.50
2019-02-07T08:54:51.977Z,30.40
2019-02-07T08:55:51.964Z,31.10
2019-02-07T08:56:51.955Z,30.90
2019-02-07T08:57:51.947Z,31.50
2019-02-07T08:58:51.947Z,30.90
2019-02-07T08:59:51.922Z,30.20
2019-02-07T09:00:51.913Z,30.70
2019-02-07T09:01:51.903Z,29.60
2019-02-07T09:02:52.211Z,30.10
2019-02-07T09:03:51.881Z,30.50
2019-02-07T09:04:51.889Z,31.00
2019-02-07T09:05:51.862Z,31.70
2019-02-07T09:06:51.849Z,31.40
2019-02-07T09:07:51.842Z,32.60
2019-02-07T09:08:51.830Z,32.30
2019-02-07T09:09:51.820Z,32.40
2019-02-07T09:10:51.827Z,31.20
2019-02-07T09:11:51.798Z,31.60
2019-02-07T09:12:51.792Z,30.70
2019-02-07T09:13:53.778Z,31.50
2019-02-07T09:14:51.770Z,31.40
2019-02-07T09:15:51.758Z,32.20
2019-02-07T09:16:51.760Z,33.20
2019-02-07T09:17:51.735Z,33.80
2019-02-07T09:18:51.724Z,31.20
2019-02-07T09:19:51.715Z,34.40
2019-02-07T09:20:51.703Z,34.60
2019-02-07T09:21:51.696Z,35.50
2019-02-07T09:22:51.702Z,33.20
2019-02-07T09:23:51.672Z,35.10
2019-02-07T09:24:51.663Z,35.00
2019-02-07T09:25:51.650Z,31.80
2019-02-07T09:26:51.640Z,31.50
2019-02-07T09:27:51.630Z,32.40
2019-02-07T09:28:51.634Z,35.10
2019-02-07T09:29:51.608Z,30.60
2019-02-07T09:30:51.599Z,31.60
2019-02-07T09:31:51.589Z,31.90
2019-02-07T09:32:51.579Z,32.20
2019-02-07T09:33:51.567Z,31.50
2019-02-07T09:34:51.573Z,33.50
2019-02-07T09:35:51.547Z,35.10
2019-02-07T09:36:51.535Z,33.90
2019-02-07T09:37:51.528Z,34.70
2019-02-07T09:38:51.521Z,33.70
2019-02-07T09:39:51.506Z,33.30
2019-02-07T09:40:51.509Z,34.00
2019-02-07T09:41:51.487Z,33.80
2019-02-07T09:42:51.472Z,32.80
2019-02-07T09:43:51.462Z,32.60
2019-02-07T09:44:51.454Z,30.60
2019-02-07T09:45:51.443Z,33.20
2019-02-07T09:46:51.450Z,34.30
2019-02-07T09:47:51.421Z,32.10
2019-02-07T09:48:51.411Z,29.70
2019-02-07T09:49:51.398Z,31.30
2019-02-07T09:50:51.392Z,32.10
2019-02-07T09:51:51.377Z,32.30
2019-02-07T09:52:51.392Z,33.70
2019-02-07T09:53:51.356Z,33.40
2019-02-07T09:54:51.346Z,34.00
2019-02-07T09:55:51.337Z,33.80
2019-02-07T09:56:51.327Z,33.40
2019-02-07T09:57:51.319Z,33.00
2019-02-07T09:58:51.329Z,32.10
2019-02-07T09:59:51.296Z,35.30
2019-02-07T10:00:51.285Z,34.90
2019-02-07T10:01:51.275Z,34.50
2019-02-07T10:02:58.306Z,35.00
2019-02-07T10:03:51.253Z,36.00
2019-02-07T10:04:51.256Z,35.40
2019-02-07T10:05:51.234Z,36.80
2019-02-07T10:06:51.224Z,37.80
2019-02-07T10:07:51.218Z,36.10
2019-02-07T10:08:51.201Z,36.20
2019-02-07T10:09:51.192Z,36.10
2019-02-07T10:10:51.199Z,36.60
2019-02-07T10:11:51.202Z,35.80
2019-02-07T10:12:51.163Z,35.20
2019-02-07T10:13:51.154Z,36.40
2019-02-07T10:14:51.144Z,34.90
2019-02-07T10:15:51.132Z,36.50
2019-02-07T10:16:51.134Z,37.60
2019-02-07T10:17:51.115Z,35.40
2019-02-07T10:18:51.101Z,34.70
2019-02-07T10:19:51.100Z,34.20
2019-02-07T10:20:51.091Z,34.80
2019-02-07T10:21:51.071Z,35.90
2019-02-07T10:22:51.079Z,36.40
2019-02-07T10:23:51.047Z,34.30
2019-02-07T10:24:51.041Z,35.80
2019-02-07T10:25:51.525Z,34.80
2019-02-07T10:26:51.018Z,34.40
2019-02-07T10:27:51.007Z,35.10
2019-02-07T10:28:51.012Z,36.50
2019-02-07T10:29:50.989Z,34.40
2019-02-07T10:30:50.970Z,36.50
2019-02-07T10:31:50.964Z,35.70
2019-02-07T10:32:50.958Z,34.10
2019-02-07T10:33:50.950Z,35.70
2019-02-07T10:34:50.957Z,34.40
2019-02-07T10:35:50.923Z,34.40
2019-02-07T10:36:50.914Z,35.70
2019-02-07T10:37:50.906Z,36.20
2019-02-07T10:38:50.897Z,36.00
2019-02-07T10:39:50.884Z,34.90
2019-02-07T10:40:50.890Z,35.40
2019-02-07T10:41:50.858Z,34.10
2019-02-07T10:42:50.852Z,33.60
2019-02-07T10:43:50.842Z,34.00
2019-02-07T10:44:50.839Z,33.90
2019-02-07T10:45:50.819Z,35.60
2019-02-07T10:46:50.823Z,35.70
2019-02-07T10:47:50.797Z,34.10
2019-02-07T10:48:50.787Z,35.50
2019-02-07T10:49:58.952Z,35.20
2019-02-07T10:50:51.778Z,34.80
2019-02-07T10:51:50.759Z,35.10
2019-02-07T10:52:50.771Z,36.60
2019-02-07T10:53:50.736Z,34.40
2019-02-07T10:54:50.730Z,33.50
2019-02-07T10:55:50.714Z,33.90
2019-02-07T10:56:50.705Z,35.10
2019-02-07T10:57:50.701Z,34.10
2019-02-07T10:58:50.704Z,35.80
2019-02-07T10:59:50.673Z,35.00
2019-02-07T11:00:50.663Z,35.60
2019-02-07T11:01:50.659Z,35.80
2019-02-07T11:02:50.647Z,37.00
2019-02-07T11:03:50.630Z,36.30
2019-02-07T11:04:50.634Z,35.20
2019-02-07T11:05:50.610Z,36.80
2019-02-07T11:06:50.601Z,36.00
2019-02-07T11:07:50.592Z,36.20
2019-02-07T11:08:50.579Z,34.90
2019-02-07T11:09:50.573Z,34.50
2019-02-07T11:10:50.659Z,35.60
2019-02-07T11:11:50.550Z,36.20
2019-02-07T11:12:50.531Z,36.00
2019-02-07T11:13:50.528Z,36.00
2019-02-07T11:14:50.518Z,35.40
2019-02-07T11:15:50.505Z,35.10
2019-02-07T11:16:50.515Z,36.20
2019-02-07T11:17:50.492Z,36.80
2019-02-07T11:18:55.648Z,34.50
2019-02-07T11:19:51.461Z,36.50
2019-02-07T11:20:50.446Z,35.50
2019-02-07T11:21:50.439Z,36.40
2019-02-07T11:22:50.450Z,34.10
2019-02-07T11:23:50.417Z,36.90
2019-02-07T11:24:50.404Z,35.60
2019-02-07T11:25:50.398Z,37.20
2019-02-07T11:26:50.382Z,34.90
2019-02-07T11:27:50.385Z,36.60
2019-02-07T11:28:50.382Z,36.00
2019-02-07T11:29:50.360Z,35.50
2019-02-07T11:30:50.356Z,35.50
2019-02-07T11:31:50.337Z,35.00
2019-02-07T11:32:50.321Z,36.30
2019-02-07T11:33:50.314Z,35.30
2019-02-07T11:34:50.324Z,36.40
2019-02-07T11:35:50.288Z,34.90
2019-02-07T11:36:54.091Z,37.10
2019-02-07T11:37:50.271Z,37.70
2019-02-07T11:38:50.258Z,35.90
2019-02-07T11:39:50.258Z,36.90
2019-02-07T11:40:50.261Z,36.70
2019-02-07T11:41:50.226Z,36.80
2019-02-07T11:42:50.218Z,35.60
2019-02-07T11:43:50.206Z,36.70
2019-02-07T11:44:50.750Z,36.50
2019-02-07T11:45:50.184Z,36.80
2019-02-07T11:46:50.209Z,36.90
2019-02-07T11:47:50.166Z,36.80
2019-02-07T11:48:50.152Z,36.30
2019-02-07T11:49:50.146Z,36.20
2019-02-07T11:50:50.133Z,36.30
2019-02-07T11:51:50.146Z,34.90
2019-02-07T11:52:50.161Z,35.50
2019-02-07T11:53:50.102Z,38.30
2019-02-07T11:54:50.092Z,36.00
2019-02-07T11:55:50.083Z,36.20
2019-02-07T11:56:50.069Z,37.00
2019-02-07T11:57:50.060Z,40.30
2019-02-07T11:58:50.062Z,39.00
2019-02-07T11:59:50.037Z,36.60
2019-02-07T12:00:50.051Z,36.30
2019-02-07T12:01:50.018Z,36.90
2019-02-07T12:02:50.009Z,37.90
2019-02-07T12:03:49.996Z,35.90
2019-02-07T12:04:50.002Z,37.70
2019-02-07T12:05:49.976Z,37.50
2019-02-07T12:06:49.967Z,37.60
2019-02-07T12:07:49.954Z,37.20
2019-02-07T12:08:49.944Z,38.30
2019-02-07T12:09:49.935Z,38.20
2019-02-07T12:10:50.030Z,36.20
2019-02-07T12:11:49.916Z,36.60
2019-02-07T12:12:49.909Z,39.80
2019-02-07T12:13:49.939Z,39.80
2019-02-07T12:14:49.877Z,40.10
2019-02-07T12:15:49.868Z,39.50
2019-02-07T12:16:49.884Z,40.00
2019-02-07T12:17:49.856Z,39.70
2019-02-07T12:18:49.839Z,43.40
2019-02-07T12:19:49.830Z,40.90
2019-02-07T12:20:49.814Z,40.80
2019-02-07T12:21:49.810Z,39.10
2019-02-07T12:22:49.815Z,39.70
2019-02-07T12:23:49.788Z,39.80
2019-02-07T12:24:49.778Z,39.50
2019-02-07T12:25:49.766Z,39.60
2019-02-07T12:26:49.756Z,38.80
2019-02-07T12:27:49.754Z,39.80
2019-02-07T12:28:49.763Z,40.50
2019-02-07T12:29:49.727Z,39.40
2019-02-07T12:30:49.717Z,40.00
2019-02-07T12:31:49.705Z,41.30
2019-02-07T12:32:49.693Z,41.60
2019-02-07T12:33:49.687Z,41.20
2019-02-07T12:34:49.692Z,39.70
2019-02-07T12:35:49.662Z,42.60
2019-02-07T12:36:49.651Z,41.80
2019-02-07T12:37:49.642Z,41.40
2019-02-07T12:38:49.632Z,39.30
2019-02-07T12:39:49.620Z,41.60
2019-02-07T12:40:49.622Z,40.10
2019-02-07T12:41:49.600Z,40.60
2019-02-07T12:42:49.592Z,41.40
2019-02-07T12:43:49.575Z,41.50
2019-02-07T12:44:49.568Z,40.00
2019-02-07T12:45:49.560Z,41.10
2019-02-07T12:46:49.617Z,40.50
2019-02-07T12:47:49.539Z,41.80
2019-02-07T12:48:49.526Z,42.30
2019-02-07T12:49:49.516Z,40.40
2019-02-07T12:50:49.504Z,41.30
2019-02-07T12:51:49.494Z,41.00
2019-02-07T12:52:49.526Z,42.00